createdAt,value
2019-02-23T00:03:33.132Z,66.71
2019-02-23T00:08:37.495Z,68.58
2019-02-23T00:13:42.032Z,68.61
2019-02-23T00:18:46.406Z,69.50
2019-02-23T00:23:50.788Z,69.39
2019-02-23T00:28:56.217Z,68.52
2019-02-23T00:34:00.559Z,67.26
2019-02-23T00:39:06.175Z,66.32
2019-02-23T00:44:12.141Z,67.97
2019-02-23T00:49:16.526Z,68.09
2019-02-23T00:54:20.878Z,65.78
2019-02-23T00:59:25.249Z,66.03
2019-02-23T01:04:29.630Z,65.42
2019-02-23T01:09:34.019Z,65.54
2019-02-23T01:14:38.394Z,68.02
2019-02-23T01:19:47.821Z,67.94
2019-02-23T01:24:48.930Z,67.87
2019-02-23T01:29:53.306Z,67.44
2019-02-23T01:34:57.728Z,67.65
2019-02-23T01:40:02.179Z,68.35
2019-02-23T01:45:08.141Z,69.48
2019-02-23T01:50:12.599Z,69.68
2019-02-23T01:55:17.059Z,68.49
2019-02-23T02:00:22.191Z,68.17
2019-02-23T02:05:26.546Z,69.05
2019-02-23T02:10:31.059Z,70.28
2019-02-23T02:15:35.674Z,69.42
2019-02-23T02:20:40.134Z,69.42
2019-02-23T02:25:44.511Z,69.31
2019-02-23T02:30:49.828Z,69.35
2019-02-23T02:35:54.182Z,67.03
2019-02-23T02:40:58.556Z,66.98
2019-02-23T02:46:02.942Z,67.83
2019-02-23T02:51:07.298Z,68.17
2019-02-23T02:56:11.655Z,66.92
2019-02-23T03:01:16.042Z,66.58
2019-02-23T03:06:20.386Z,68.37
2019-02-23T03:11:24.954Z,67.89
2019-02-23T03:16:30.388Z,67.58
2019-02-23T03:21:34.850Z,68.44
2019-02-23T03:26:39.306Z,67.94
2019-02-23T03:31:43.685Z,67.95
2019-02-23T03:36:48.055Z,67.52
2019-02-23T03:41:52.396Z,68.91
2019-02-23T03:46:56.780Z,69.63
2019-02-23T03:52:01.194Z,69.70
2019-02-23T03:57:05.562Z,70.18
2019-02-23T04:02:10.031Z,69.91
2019-02-23T04:07:14.386Z,70.33
2019-02-23T04:12:18.738Z,71.93
2019-02-23T04:17:23.115Z,71.80
2019-02-23T04:22:27.578Z,72.15
2019-02-23T04:27:32.015Z,70.79
2019-02-23T04:32:36.455Z,71.70
2019-02-23T04:37:40.992Z,71.65
2019-02-23T04:42:45.347Z,73.11
2019-02-23T04:47:49.772Z,74.13
2019-02-23T04:52:54.150Z,74.18
2019-02-23T04:57:58.544Z,74.26
2019-02-23T05:03:02.913Z,73.79
2019-02-23T05:08:07.306Z,73.29
2019-02-23T05:13:11.638Z,74.87
2019-02-23T05:18:16.041Z,75.71
2019-02-23T05:23:20.393Z,75.28
2019-02-23T05:28:24.788Z,74.75
2019-02-23T05:33:29.325Z,74.08
2019-02-23T05:38:33.686Z,73.26
2019-02-23T05:43:38.142Z,74.62
2019-02-23T05:48:42.508Z,73.80
2019-02-23T05:53:46.900Z,74.02
2019-02-23T05:58:51.273Z,72.70
2019-02-23T06:03:55.632Z,72.22
2019-02-23T06:09:00.047Z,71.90
2019-02-23T06:14:06.040Z,72.76
2019-02-23T06:19:10.438Z,71.80
2019-02-23T06:24:14.788Z,71.61
2019-02-23T06:29:19.253Z,72.03
2019-02-23T06:34:23.617Z,70.58
2019-02-23T06:39:28.036Z,69.98
2019-02-23T06:44:32.465Z,67.20
2019-02-23T06:49:36.870Z,63.92
2019-02-23T06:54:41.628Z,59.50
2019-02-23T06:59:46.091Z,59.37
2019-02-23T07:04:50.456Z,58.81
2019-02-23T07:09:54.863Z,57.92
2019-02-23T07:15:00.358Z,58.28
2019-02-23T07:20:07.363Z,57.58
2019-02-23T07:25:11.726Z,57.72
2019-02-23T07:30:16.092Z,57.89
2019-02-23T07:35:20.561Z,56.50
2019-02-23T07:40:24.997Z,55.42
2019-02-23T07:45:29.428Z,55.41
2019-02-23T07:50:33.801Z,54.55
2019-02-23T07:55:38.162Z,52.60
2019-02-23T08:00:42.538Z,52.74
2019-02-23T08:05:46.884Z,52.28
2019-02-23T08:10:51.260Z,51.56
2019-02-23T08:15:55.707Z,52.15
2019-02-23T08:21:00.109Z,50.76
2019-02-23T08:26:04.559Z,51.67
2019-02-23T08:31:08.911Z,51.81
2019-02-23T08:36:13.271Z,51.83
2019-02-23T08:41:17.869Z,51.86
2019-02-23T08:46:22.307Z,51.85
2019-02-23T08:51:26.612Z,52.30
2019-02-23T08:56:31.154Z,51.90
2019-02-23T09:01:35.573Z,51.14
2019-02-23T09:06:39.933Z,51.19
2019-02-23T09:11:44.309Z,51.05
2019-02-23T09:16:48.664Z,50.65
2019-02-23T09:21:53.030Z,50.73
2019-02-23T09:26:57.377Z,50.59
2019-02-23T09:32:01.756Z,49.68
2019-02-23T09:37:06.090Z,49.14
2019-02-23T09:42:10.523Z,48.78
2019-02-23T09:47:14.944Z,47.84
2019-02-23T09:52:19.305Z,47.45
2019-02-23T09:57:23.669Z,47.96
2019-02-23T10:02:28.026Z,48.02
2019-02-23T10:07:32.380Z,46.58
2019-02-23T10:12:36.723Z,46.47
2019-02-23T10:17:41.103Z,46.00
2019-02-23T10:22:45.507Z,46.52
2019-02-23T10:27:49.878Z,45.98
2019-02-23T10:32:54.316Z,45.03
2019-02-23T10:37:58.784Z,44.34
2019-02-23T10:43:03.145Z,43.46
2019-02-23T10:48:08.587Z,42.91
2019-02-23T10:53:12.991Z,46.97
2019-02-23T10:58:18.435Z,46.91
2019-02-23T11:03:23.027Z,50.72
2019-02-23T11:08:27.468Z,46.59
2019-02-23T11:13:31.824Z,43.43
2019-02-23T11:18:36.467Z,47.03
2019-02-23T11:23:44.474Z,44.94
2019-02-23T11:28:47.991Z,42.40
2019-02-23T11:33:52.390Z,43.29
2019-02-23T11:38:56.752Z,43.91
2019-02-23T11:44:01.116Z,42.44
2019-02-23T11:49:08.141Z,39.02
2019-02-23T11:54:11.595Z,35.24
2019-02-23T11:59:15.979Z,36.46
2019-02-23T12:04:20.335Z,41.84
2019-02-23T12:09:24.729Z,36.96
2019-02-23T12:14:29.088Z,36.10
2019-02-23T12:19:33.423Z,38.63
2019-02-23T12:24:37.816Z,33.66
2019-02-23T12:29:42.183Z,35.92
2019-02-23T12:34:46.528Z,38.35
2019-02-23T12:39:50.892Z,36.12
2019-02-23T12:44:55.315Z,35.34
2019-02-23T12:49:59.702Z,33.19
2019-02-23T12:55:04.991Z,37.22
2019-02-23T13:00:14.905Z,33.45
2019-02-23T13:05:19.252Z,32.35
2019-02-23T13:10:23.590Z,32.71
2019-02-23T13:15:43.143Z,32.38
2019-02-23T13:20:59.646Z,32.52
2019-02-23T13:26:16.217Z,33.55
2019-02-23T13:31:50.419Z,31.64
2019-02-23T13:37:19.022Z,33.10
2019-02-23T13:42:44.600Z,31.55
2019-02-23T13:48:16.733Z,32.66
2019-02-23T13:53:36.142Z,32.37
2019-02-23T13:58:55.577Z,30.32
2019-02-23T14:04:15.378Z,30.68
2019-02-23T14:09:28.400Z,31.19
2019-02-23T14:14:38.735Z,30.46
2019-02-23T14:19:55.431Z,31.46
2019-02-23T14:25:15.172Z,33.57
2019-02-23T14:30:28.665Z,33.43
2019-02-23T14:35:42.045Z,32.45
2019-02-23T14:41:01.760Z,32.17
2019-02-23T14:46:12.123Z,33.52
2019-02-23T14:51:37.413Z,32.85
2019-02-23T14:57:10.699Z,34.33
2019-02-23T15:02:50.034Z,35.17
2019-02-23T15:08:18.460Z,34.85
2019-02-23T15:13:27.695Z,36.75
2019-02-23T15:18:38.001Z,36.11
2019-02-23T15:24:17.621Z,37.43
2019-02-23T15:29:40.196Z,39.85
2019-02-23T15:35:04.330Z,38.42
2019-02-23T15:40:29.806Z,38.92
2019-02-23T15:45:52.401Z,39.49
2019-02-23T15:50:56.859Z,38.37
2019-02-23T15:56:01.324Z,38.98
2019-02-23T16:01:06.066Z,40.47
2019-02-23T16:06:10.419Z,39.69
2019-02-23T16:11:15.866Z,40.05
2019-02-23T16:16:20.292Z,41.15
2019-02-23T16:21:24.674Z,41.37
2019-02-23T16:26:29.997Z,40.96
2019-02-23T16:31:34.433Z,41.99
2019-02-23T16:36:38.891Z,42.07
2019-02-23T16:41:43.377Z,44.98
2019-02-23T16:46:47.743Z,43.81
2019-02-23T16:51:52.135Z,40.83
2019-02-23T16:56:56.516Z,42.97
2019-02-23T17:02:00.907Z,41.05
2019-02-23T17:07:05.362Z,45.69
2019-02-23T17:12:09.811Z,46.81
2019-02-23T17:17:14.206Z,45.93
2019-02-23T17:22:19.645Z,46.03
2019-02-23T17:27:35.508Z,46.21
2019-02-23T17:32:30.102Z,44.48
2019-02-23T17:37:35.528Z,47.51
2019-02-23T17:42:39.863Z,47.65
2019-02-23T17:47:44.225Z,47.47
2019-02-23T17:52:48.579Z,48.02
2019-02-23T17:57:52.991Z,47.35
2019-02-23T18:02:57.361Z,47.27
2019-02-23T18:08:01.730Z,47.12
2019-02-23T18:13:06.175Z,47.14
2019-02-23T18:18:10.531Z,47.88
2019-02-23T18:23:16.696Z,47.44
2019-02-23T18:28:21.150Z,48.26
2019-02-23T18:33:25.551Z,47.78
2019-02-23T18:38:29.927Z,46.92
2019-02-23T18:43:34.340Z,47.00
2019-02-23T18:48:38.888Z,47.43
2019-02-23T18:53:43.507Z,47.35
2019-02-23T18:58:47.962Z,46.68
2019-02-23T19:03:52.286Z,48.51
2019-02-23T19:08:56.758Z,47.38
2019-02-23T19:14:01.282Z,48.84
2019-02-23T19:19:05.694Z,48.87
2019-02-23T19:24:10.111Z,46.89
2019-02-23T19:29:14.463Z,45.30
2019-02-23T19:34:18.811Z,43.81
2019-02-23T19:39:23.397Z,45.41
2019-02-23T19:44:27.750Z,46.53
2019-02-23T19:49:32.855Z,45.86
2019-02-23T19:54:37.238Z,45.59
2019-02-23T19:59:41.624Z,45.60
2019-02-23T20:04:46.151Z,46.03
2019-02-23T20:09:50.533Z,46.66
2019-02-23T20:14:54.920Z,47.58
2019-02-23T20:19:59.306Z,47.46
2019-02-23T20:25:03.689Z,47.71
2019-02-23T20:30:10.236Z,47.84
2019-02-23T20:35:14.776Z,49.67
2019-02-23T20:40:19.314Z,48.99
2019-02-23T20:45:23.683Z,49.54
2019-02-23T20:50:28.410Z,50.46
2019-02-23T20:55:32.747Z,50.53
2019-02-23T21:00:37.133Z,49.65
2019-02-23T21:05:41.479Z,50.25
2019-02-23T21:10:45.901Z,50.10
2019-02-23T21:15:50.456Z,50.86
2019-02-23T21:20:54.887Z,51.30
2019-02-23T21:25:59.261Z,52.35
2019-02-23T21:31:03.699Z,51.74
2019-02-23T21:36:08.223Z,52.38
2019-02-23T21:41:12.614Z,52.24
2019-02-23T21:46:17.034Z,52.47
2019-02-23T21:51:21.384Z,52.79
2019-02-23T21:56:25.765Z,53.29
2019-02-23T22:01:30.331Z,52.99
2019-02-23T22:06:34.975Z,53.11
2019-02-23T22:11:39.287Z,53.49
2019-02-23T22:16:43.725Z,54.76
2019-02-23T22:21:48.187Z,55.33
2019-02-23T22:26:52.524Z,54.28
2019-02-23T22:31:56.964Z,53.77
2019-02-23T22:37:01.421Z,54.58
2019-02-23T22:42:05.984Z,55.69
2019-02-23T22:47:10.477Z,54.96
2019-02-23T22:52:15.031Z,54.85
2019-02-23T22:57:19.403Z,54.11
2019-02-23T23:02:23.797Z,54.30
2019-02-23T23:07:28.435Z,54.83
2019-02-23T23:12:32.790Z,55.68
2019-02-23T23:17:38.112Z,55.32
2019-02-23T23:22:42.636Z,55.41
2019-02-23T23:27:49.532Z,56.16
2019-02-23T23:32:54.069Z,55.23
2019-02-23T23:37:58.490Z,54.54
2019-02-23T23:43:02.858Z,54.44
2019-02-23T23:48:07.231Z,54.31
2019-02-23T23:53:11.614Z,55.29
2019-02-23T23:58:16.037Z,55.51
